Port Saint Lucie, FL

10:56 AM EST on January 21, 2017 (GMT -0500)
Southport Middle School WeatherSTEM | | Change Station
Active Advisory: Small Craft Advisory

Elev 32 ft 27.27 °N, 80.30 °W | Updated 3 minutes ago

Clear
Clear
77.0 °F
Feels Like 79 °F
N
2.0
Wind Variable Wind from SSW

Today
High -- | Low -- °F
--% Chance of Precip.
Yesterday
High -- | Low -- °F
Precip. -- in
Pressure 30.01 in
Visibility 7.0 miles
Clouds Scattered Clouds 3500 ft
Heat Index 79 °F
Dew Point 65 °F
Humidity 66%
Rainfall 0.00 in
Snow Depth Not available.
7:11 AM 5:54 PM
Waning Crescent, 34% visible
METAR KSUA 211547Z 21008KT 7SM SCT035 27/17 A3001
Pressure 30.01 in
Visibility 7.0 miles
Clouds Scattered Clouds 3500 ft
Heat Index 79 °F
Dew Point 65 °F
Humidity 66%
Rainfall 0.00 in
Snow Depth Not available.
7:11 AM 5:54 PM
Waning Crescent, 34% visible
METAR KSUA 211547Z 21008KT 7SM SCT035 27/17 A3001

Get Your Daily Forecast Email!

Thanks for signing up!

Be on the lookout for a verification email in your inbox.

You'll start receiving the daily forecast at 8 AM.

×

10-Day Weather Forecast

Almanac

Astronomy

Jan. 21, 2017 Rise Set
Actual Time
Civil Twilight
Nautical Twilight
Astronomical Twilight
Moon
Length of Visible Light
Length of Day
Tomorrow will be .
, % of the Moon is Illuminated

Today's Extremes

State Highs State Lows

Community

WunderPhotos

Upload Photos

1,962,540 photos uploaded!

WunderBlog® & News

Nearby

Air Quality

  Air Quality AQ Index Pollutant
Not available.

Snow Depth

Station Depth Elevation

Earthquake Activity

City Distance Mag. Time & Date
Minimum magnitude displayed is 2.5.

Coastal Water Temperatures

Place Temperature

Stations

Nearby Weather Stations

Station Location Temp. Windchill Dew Point Humidity Wind Precip. Elev Updated Type
                   

Watches & Warnings

Small Craft Advisory
Issued: 4:35 AM EST Jan. 21, 2017 – National Weather Service

... Small Craft Advisory in effect from 4 am Sunday to 9 am EST
Tuesday...

The National Weather Service in Melbourne has issued a Small
Craft Advisory... which is in effect from 4 am Sunday to 9 am EST
Tuesday.

* Winds... south to southwest 20 knots early Sunday will increase
25 to 35 knots Sunday night and Monday from the west.

* Waves/seas... building to 10 feet offshore Sunday night through
Monday night.

Precautionary/preparedness actions...

A Small Craft Advisory means that wind speeds of 20 to 33 knots
are expected to produce hazardous wave conditions to small craft.
Inexperienced mariners... especially those operating smaller
vessels should avoid navigating in these conditions.